sensor_id;sensor_type;location;lat;lon;timestamp;noise_LAeq;noise_LA_min;noise_LA_max;noise_LA01;noise_LA95
66456;Laerm;56833;52.254;5.598;2023-04-03T00:00:08;36.32;35.45;37.14;;
66456;Laerm;56833;52.254;5.598;2023-04-03T00:00:18;36.34;35.32;37.40;;
66456;Laerm;56833;52.254;5.598;2023-04-03T00:00:29;36.36;35.19;37.35;;
66456;Laerm;56833;52.254;5.598;2023-04-03T00:00:42;36.36;35.42;37.26;;
66456;Laerm;56833;52.254;5.598;2023-04-03T00:00:53;36.33;35.40;37.33;;
66456;Laerm;56833;52.254;5.598;2023-04-03T00:01:03;36.37;35.23;37.51;;
66456;Laerm;56833;52.254;5.598;2023-04-03T00:01:14;36.36;35.17;37.25;;
66456;Laerm;56833;52.254;5.598;2023-04-03T00:01:24;36.40;35.39;37.20;;
66456;Laerm;56833;52.254;5.598;2023-04-03T00:01:34;36.42;35.16;37.63;;
66456;Laerm;56833;52.254;5.598;2023-04-03T00:01:48;36.38;35.46;37.42;;
66456;Laerm;56833;52.254;5.598;2023-04-03T00:01:58;36.41;35.31;37.39;;
66456;Laerm;56833;52.254;5.598;2023-04-03T00:02:08;36.41;35.33;37.30;;
66456;Laerm;56833;52.254;5.598;2023-04-03T00:02:19;36.43;35.46;37.37;;
66456;Laerm;56833;52.254;5.598;2023-04-03T00:02:29;36.43;35.52;37.34;;
66456;Laerm;56833;52.254;5.598;2023-04-03T00:02:39;36.42;35.29;37.29;;
66456;Laerm;56833;52.254;5.598;2023-04-03T00:02:53;36.46;35.28;37.40;;
66456;Laerm;56833;52.254;5.598;2023-04-03T00:03:03;36.46;35.56;37.56;;
66456;Laerm;56833;52.254;5.598;2023-04-03T00:03:14;36.48;35.58;37.28;;
66456;Laerm;56833;52.254;5.598;2023-04-03T00:03:24;36.45;35.45;37.54;;
66456;Laerm;56833;52.254;5.598;2023-04-03T00:03:35;36.42;35.49;37.22;;
66456;Laerm;56833;52.254;5.598;2023-04-03T00:03:48;36.45;35.38;37.36;;
66456;Laerm;56833;52.254;5.598;2023-04-03T00:04:01;36.47;35.56;37.54;;
66456;Laerm;56833;52.254;5.598;2023-04-03T00:04:12;36.49;35.65;37.53;;
66456;Laerm;56833;52.254;5.598;2023-04-03T00:04:22;36.48;35.35;37.59;;
66456;Laerm;56833;52.254;5.598;2023-04-03T00:04:33;36.47;35.44;37.49;;
66456;Laerm;56833;52.254;5.598;2023-04-03T00:04:46;36.49;35.54;37.57;;
66456;Laerm;56833;52.254;5.598;2023-04-03T00:04:56;36.54;35.10;37.64;;
66456;Laerm;56833;52.254;5.598;2023-04-03T00:05:07;36.46;35.44;37.34;;
66456;Laerm;56833;52.254;5.598;2023-04-03T00:05:20;36.51;35.41;37.39;;
66456;Laerm;56833;52.254;5.598;2023-04-03T00:05:30;36.54;35.49;37.38;;
66456;Laerm;56833;52.254;5.598;2023-04-03T00:05:40;36.54;35.52;37.49;;
66456;Laerm;56833;52.254;5.598;2023-04-03T00:05:52;36.51;35.69;37.32;;
66456;Laerm;56833;52.254;5.598;2023-04-03T00:06:03;36.50;35.27;37.39;;
66456;Laerm;56833;52.254;5.598;2023-04-03T00:06:15;36.54;35.65;37.45;;
66456;Laerm;56833;52.254;5.598;2023-04-03T00:06:28;36.61;35.41;37.49;;
66456;Laerm;56833;52.254;5.598;2023-04-03T00:06:39;36.57;35.40;37.64;;
66456;Laerm;56833;52.254;5.598;2023-04-03T00:06:49;36.58;35.60;37.63;;
66456;Laerm;56833;52.254;5.598;2023-04-03T00:06:59;36.60;35.56;37.80;;
66456;Laerm;56833;52.254;5.598;2023-04-03T00:07:10;36.53;35.30;37.61;;
66456;Laerm;56833;52.254;5.598;2023-04-03T00:07:22;36.53;35.37;37.55;;
66456;Laerm;56833;52.254;5.598;2023-04-03T00:07:32;36.58;35.72;37.55;;
66456;Laerm;56833;52.254;5.598;2023-04-03T00:07:43;36.56;35.64;37.56;;
66456;Laerm;56833;52.254;5.598;2023-04-03T00:07:53;36.53;35.32;37.32;;
66456;Laerm;56833;52.254;5.598;2023-04-03T00:08:05;36.53;35.55;37.47;;
66456;Laerm;56833;52.254;5.598;2023-04-03T00:08:18;36.52;35.62;37.40;;
66456;Laerm;56833;52.254;5.598;2023-04-03T00:08:28;36.54;35.48;37.48;;
66456;Laerm;56833;52.254;5.598;2023-04-03T00:08:42;36.56;35.45;37.56;;
66456;Laerm;56833;52.254;5.598;2023-04-03T00:08:52;36.55;35.60;37.45;;
66456;Laerm;56833;52.254;5.598;2023-04-03T00:09:06;36.54;35.57;37.66;;
66456;Laerm;56833;52.254;5.598;2023-04-03T00:09:16;36.56;35.53;37.80;;
66456;Laerm;56833;52.254;5.598;2023-04-03T00:09:27;36.53;35.68;37.47;;
66456;Laerm;56833;52.254;5.598;2023-04-03T00:09:39;36.52;35.50;37.32;;
66456;Laerm;56833;52.254;5.598;2023-04-03T00:09:50;36.52;35.40;37.52;;
66456;Laerm;56833;52.254;5.598;2023-04-03T00:10:03;36.50;35.59;37.64;;
66456;Laerm;56833;52.254;5.598;2023-04-03T00:10:13;36.45;35.45;37.33;;
66456;Laerm;56833;52.254;5.598;2023-04-03T00:10:25;36.49;35.34;37.49;;
66456;Laerm;56833;52.254;5.598;2023-04-03T00:10:36;36.50;35.35;37.40;;
66456;Laerm;56833;52.254;5.598;2023-04-03T00:10:55;36.48;35.47;37.65;;
66456;Laerm;56833;52.254;5.598;2023-04-03T00:11:06;36.51;35.61;37.39;;
66456;Laerm;56833;52.254;5.598;2023-04-03T00:11:19;36.48;35.42;37.64;;
66456;Laerm;56833;52.254;5.598;2023-04-03T00:11:31;36.47;35.02;37.27;;
66456;Laerm;56833;52.254;5.598;2023-04-03T00:11:46;36.46;35.41;37.60;;
66456;Laerm;56833;52.254;5.598;2023-04-03T00:11:57;36.53;35.46;37.46;;
66456;Laerm;56833;52.254;5.598;2023-04-03T00:12:07;36.49;35.34;37.55;;
66456;Laerm;56833;52.254;5.598;2023-04-03T00:12:17;36.47;35.52;37.26;;
66456;Laerm;56833;52.254;5.598;2023-04-03T00:12:28;36.45;35.35;37.95;;
66456;Laerm;56833;52.254;5.598;2023-04-03T00:12:38;36.48;35.65;37.33;;
66456;Laerm;56833;52.254;5.598;2023-04-03T00:12:51;36.52;35.48;37.49;;
66456;Laerm;56833;52.254;5.598;2023-04-03T00:13:04;36.55;35.53;37.29;;
66456;Laerm;56833;52.254;5.598;2023-04-03T00:13:15;36.46;35.52;37.31;;
66456;Laerm;56833;52.254;5.598;2023-04-03T00:13:35;36.45;35.31;37.47;;
66456;Laerm;56833;52.254;5.598;2023-04-03T00:13:45;36.52;35.57;37.61;;
66456;Laerm;56833;52.254;5.598;2023-04-03T00:13:55;36.51;35.50;37.51;;
66456;Laerm;56833;52.254;5.598;2023-04-03T00:14:06;36.54;35.69;37.68;;
66456;Laerm;56833;52.254;5.598;2023-04-03T00:14:16;36.58;35.58;37.46;;
66456;Laerm;56833;52.254;5.598;2023-04-03T00:14:26;36.56;35.40;37.64;;
66456;Laerm;56833;52.254;5.598;2023-04-03T00:14:37;36.60;35.82;37.60;;
66456;Laerm;56833;52.254;5.598;2023-04-03T00:14:48;36.61;35.29;37.65;;
66456;Laerm;56833;52.254;5.598;2023-04-03T00:15:01;36.62;35.63;37.54;;
66456;Laerm;56833;52.254;5.598;2023-04-03T00:15:11;36.62;35.61;37.57;;
66456;Laerm;56833;52.254;5.598;2023-04-03T00:15:21;36.58;35.68;37.55;;
66456;Laerm;56833;52.254;5.598;2023-04-03T00:15:32;36.57;35.37;37.45;;
66456;Laerm;56833;52.254;5.598;2023-04-03T00:15:43;36.61;35.68;37.67;;
66456;Laerm;56833;52.254;5.598;2023-04-03T00:15:53;36.57;35.54;37.41;;
66456;Laerm;56833;52.254;5.598;2023-04-03T00:16:04;36.57;35.82;37.61;;
66456;Laerm;56833;52.254;5.598;2023-04-03T00:16:14;36.61;35.77;37.53;;
66456;Laerm;56833;52.254;5.598;2023-04-03T00:16:25;36.61;35.45;37.46;;
66456;Laerm;56833;52.254;5.598;2023-04-03T00:16:36;36.60;35.66;38.32;;
66456;Laerm;56833;52.254;5.598;2023-04-03T00:16:46;36.63;35.61;37.50;;
66456;Laerm;56833;52.254;5.598;2023-04-03T00:16:56;36.56;35.34;37.43;;
66456;Laerm;56833;52.254;5.598;2023-04-03T00:17:07;36.54;35.41;37.41;;
66456;Laerm;56833;52.254;5.598;2023-04-03T00:17:17;36.60;35.65;37.51;;
66456;Laerm;56833;52.254;5.598;2023-04-03T00:17:27;36.57;35.60;37.40;;
66456;Laerm;56833;52.254;5.598;2023-04-03T00:17:38;36.61;35.62;37.78;;
66456;Laerm;56833;52.254;5.598;2023-04-03T00:17:51;36.58;35.55;37.41;;
66456;Laerm;56833;52.254;5.598;2023-04-03T00:18:02;36.58;35.26;37.68;;
66456;Laerm;56833;52.254;5.598;2023-04-03T00:18:12;36.63;35.65;37.54;;
66456;Laerm;56833;52.254;5.598;2023-04-03T00:18:23;36.57;35.62;37.49;;
66456;Laerm;56833;52.254;5.598;2023-04-03T00:18:33;36.63;35.62;37.47;;
66456;Laerm;56833;52.254;5.598;2023-04-03T00:18:46;36.60;35.63;37.67;;
66456;Laerm;56833;52.254;5.598;2023-04-03T00:18:57;36.65;35.52;37.59;;
66456;Laerm;56833;52.254;5.598;2023-04-03T00:19:07;36.62;35.78;37.74;;
66456;Laerm;56833;52.254;5.598;2023-04-03T00:19:18;36.61;35.65;37.45;;
66456;Laerm;56833;52.254;5.598;2023-04-03T00:19:28;36.64;35.55;37.59;;
66456;Laerm;56833;52.254;5.598;2023-04-03T00:19:38;36.65;35.61;37.70;;
66456;Laerm;56833;52.254;5.598;2023-04-03T00:19:51;36.68;35.52;37.75;;
66456;Laerm;56833;52.254;5.598;2023-04-03T00:20:02;36.73;35.70;37.64;;
66456;Laerm;56833;52.254;5.598;2023-04-03T00:20:12;36.73;35.65;37.69;;
66456;Laerm;56833;52.254;5.598;2023-04-03T00:20:23;36.72;35.85;37.44;;
66456;Laerm;56833;52.254;5.598;2023-04-03T00:20:33;36.74;35.77;37.56;;
66456;Laerm;56833;52.254;5.598;2023-04-03T00:20:44;36.79;35.91;37.99;;
66456;Laerm;56833;52.254;5.598;2023-04-03T00:20:54;36.81;35.98;37.77;;
66456;Laerm;56833;52.254;5.598;2023-04-03T00:21:04;36.84;35.87;37.72;;
66456;Laerm;56833;52.254;5.598;2023-04-03T00:21:15;36.84;36.06;37.73;;
66456;Laerm;56833;52.254;5.598;2023-04-03T00:21:34;36.81;35.75;37.80;;
66456;Laerm;56833;52.254;5.598;2023-04-03T00:21:45;36.80;35.92;37.91;;
66456;Laerm;56833;52.254;5.598;2023-04-03T00:21:56;36.77;35.73;37.83;;
66456;Laerm;56833;52.254;5.598;2023-04-03T00:22:06;36.79;35.84;37.63;;
66456;Laerm;56833;52.254;5.598;2023-04-03T00:22:16;36.77;35.78;37.64;;
66456;Laerm;56833;52.254;5.598;2023-04-03T00:22:27;36.76;35.67;37.82;;
66456;Laerm;56833;52.254;5.598;2023-04-03T00:22:39;36.76;35.74;37.78;;
66456;Laerm;56833;52.254;5.598;2023-04-03T00:22:53;36.75;35.82;37.59;;
66456;Laerm;56833;52.254;5.598;2023-04-03T00:23:03;36.80;35.75;37.81;;
66456;Laerm;56833;52.254;5.598;2023-04-03T00:23:13;36.77;35.67;37.51;;
66456;Laerm;56833;52.254;5.598;2023-04-03T00:23:24;36.81;35.70;38.04;;
66456;Laerm;56833;52.254;5.598;2023-04-03T00:23:35;36.76;35.79;37.80;;
66456;Laerm;56833;52.254;5.598;2023-04-03T00:23:45;36.83;35.83;37.76;;
66456;Laerm;56833;52.254;5.598;2023-04-03T00:23:56;36.82;35.74;37.81;;
66456;Laerm;56833;52.254;5.598;2023-04-03T00:24:06;36.83;35.62;38.81;;
66456;Laerm;56833;52.254;5.598;2023-04-03T00:24:16;36.76;35.74;37.76;;
66456;Laerm;56833;52.254;5.598;2023-04-03T00:24:27;36.81;35.57;37.67;;
66456;Laerm;56833;52.254;5.598;2023-04-03T00:24:37;36.82;35.81;38.00;;
66456;Laerm;56833;52.254;5.598;2023-04-03T00:24:48;36.81;35.73;37.82;;
66456;Laerm;56833;52.254;5.598;2023-04-03T00:24:58;36.77;35.85;37.92;;
66456;Laerm;56833;52.254;5.598;2023-04-03T00:25:11;36.77;35.74;37.79;;
66456;Laerm;56833;52.254;5.598;2023-04-03T00:25:24;36.81;35.78;37.81;;
66456;Laerm;56833;52.254;5.598;2023-04-03T00:25:35;36.80;35.65;37.88;;
66456;Laerm;56833;52.254;5.598;2023-04-03T00:25:45;36.85;35.86;37.78;;
66456;Laerm;56833;52.254;5.598;2023-04-03T00:25:56;36.84;35.90;37.92;;
66456;Laerm;56833;52.254;5.598;2023-04-03T00:26:06;36.84;35.85;37.70;;
66456;Laerm;56833;52.254;5.598;2023-04-03T00:26:16;36.84;35.79;37.80;;
66456;Laerm;56833;52.254;5.598;2023-04-03T00:26:27;36.88;35.96;37.82;;
66456;Laerm;56833;52.254;5.598;2023-04-03T00:26:37;36.84;35.94;37.70;;
66456;Laerm;56833;52.254;5.598;2023-04-03T00:26:47;36.89;36.05;37.79;;
66456;Laerm;56833;52.254;5.598;2023-04-03T00:26:58;36.91;35.85;37.73;;
66456;Laerm;56833;52.254;5.598;2023-04-03T00:27:08;36.88;36.12;37.87;;
66456;Laerm;56833;52.254;5.598;2023-04-03T00:27:18;36.89;35.97;37.97;;
66456;Laerm;56833;52.254;5.598;2023-04-03T00:27:29;37.00;36.17;37.96;;
66456;Laerm;56833;52.254;5.598;2023-04-03T00:27:39;36.99;35.82;37.77;;
66456;Laerm;56833;52.254;5.598;2023-04-03T00:27:54;36.97;35.89;37.89;;
66456;Laerm;56833;52.254;5.598;2023-04-03T00:28:04;36.96;36.11;37.85;;
66456;Laerm;56833;52.254;5.598;2023-04-03T00:28:14;37.03;36.21;38.05;;
66456;Laerm;56833;52.254;5.598;2023-04-03T00:28:25;37.02;35.82;38.34;;
66456;Laerm;56833;52.254;5.598;2023-04-03T00:28:36;37.04;35.98;38.02;;
66456;Laerm;56833;52.254;5.598;2023-04-03T00:28:47;37.04;36.08;38.63;;
66456;Laerm;56833;52.254;5.598;2023-04-03T00:28:57;37.04;36.07;37.93;;
66456;Laerm;56833;52.254;5.598;2023-04-03T00:29:08;37.02;36.11;37.89;;
66456;Laerm;56833;52.254;5.598;2023-04-03T00:29:18;37.01;36.17;37.88;;
66456;Laerm;56833;52.254;5.598;2023-04-03T00:29:28;37.01;36.17;38.13;;
66456;Laerm;56833;52.254;5.598;2023-04-03T00:29:39;37.02;36.13;38.03;;
66456;Laerm;56833;52.254;5.598;2023-04-03T00:29:49;37.05;36.12;38.05;;
66456;Laerm;56833;52.254;5.598;2023-04-03T00:29:59;37.02;36.05;37.96;;
66456;Laerm;56833;52.254;5.598;2023-04-03T00:30:10;37.03;36.11;38.23;;
66456;Laerm;56833;52.254;5.598;2023-04-03T00:30:21;37.05;36.08;38.11;;
66456;Laerm;56833;52.254;5.598;2023-04-03T00:30:33;37.02;35.90;38.16;;
66456;Laerm;56833;52.254;5.598;2023-04-03T00:30:43;37.09;36.28;38.07;;
66456;Laerm;56833;52.254;5.598;2023-04-03T00:30:54;37.06;36.28;38.09;;
66456;Laerm;56833;52.254;5.598;2023-04-03T00:31:05;37.08;36.31;38.15;;
66456;Laerm;56833;52.254;5.598;2023-04-03T00:31:15;37.10;36.17;37.99;;
66456;Laerm;56833;52.254;5.598;2023-04-03T00:31:27;37.14;36.14;38.27;;
66456;Laerm;56833;52.254;5.598;2023-04-03T00:31:37;37.08;36.03;37.85;;
66456;Laerm;56833;52.254;5.598;2023-04-03T00:31:47;37.10;36.11;38.00;;
66456;Laerm;56833;52.254;5.598;2023-04-03T00:31:58;37.12;36.10;38.32;;
66456;Laerm;56833;52.254;5.598;2023-04-03T00:32:08;37.16;35.99;37.97;;
66456;Laerm;56833;52.254;5.598;2023-04-03T00:32:19;37.12;36.07;38.00;;
66456;Laerm;56833;52.254;5.598;2023-04-03T00:32:29;37.17;36.15;38.39;;
66456;Laerm;56833;52.254;5.598;2023-04-03T00:32:40;37.14;36.13;38.18;;
66456;Laerm;56833;52.254;5.598;2023-04-03T00:32:52;37.19;36.19;38.15;;
66456;Laerm;56833;52.254;5.598;2023-04-03T00:33:02;37.21;35.79;38.15;;
66456;Laerm;56833;52.254;5.598;2023-04-03T00:33:12;37.25;36.20;38.29;;
66456;Laerm;56833;52.254;5.598;2023-04-03T00:33:23;37.28;36.16;38.40;;
66456;Laerm;56833;52.254;5.598;2023-04-03T00:33:36;37.28;36.32;38.19;;
66456;Laerm;56833;52.254;5.598;2023-04-03T00:33:47;37.30;36.10;38.17;;
66456;Laerm;56833;52.254;5.598;2023-04-03T00:33:57;37.39;36.42;38.20;;
66456;Laerm;56833;52.254;5.598;2023-04-03T00:34:08;37.41;36.47;38.35;;
66456;Laerm;56833;52.254;5.598;2023-04-03T00:34:18;37.40;36.56;38.28;;
66456;Laerm;56833;52.254;5.598;2023-04-03T00:34:29;37.46;36.49;38.42;;
66456;Laerm;56833;52.254;5.598;2023-04-03T00:34:40;37.46;36.54;38.25;;
66456;Laerm;56833;52.254;5.598;2023-04-03T00:34:53;37.50;36.39;38.55;;
66456;Laerm;56833;52.254;5.598;2023-04-03T00:35:05;37.52;36.39;38.50;;
66456;Laerm;56833;52.254;5.598;2023-04-03T00:35:21;37.53;36.54;38.61;;
66456;Laerm;56833;52.254;5.598;2023-04-03T00:35:33;37.56;36.54;38.40;;
66456;Laerm;56833;52.254;5.598;2023-04-03T00:35:44;37.59;36.64;38.34;;
66456;Laerm;56833;52.254;5.598;2023-04-03T00:35:54;37.57;36.71;38.42;;
66456;Laerm;56833;52.254;5.598;2023-04-03T00:36:05;37.59;36.59;38.46;;
66456;Laerm;56833;52.254;5.598;2023-04-03T00:36:16;37.62;36.46;38.61;;
66456;Laerm;56833;52.254;5.598;2023-04-03T00:36:26;37.63;36.57;38.66;;
66456;Laerm;56833;52.254;5.598;2023-04-03T00:36:37;37.64;36.64;38.54;;
66456;Laerm;56833;52.254;5.598;2023-04-03T00:36:47;37.71;36.71;38.79;;
66456;Laerm;56833;52.254;5.598;2023-04-03T00:36:57;37.73;36.79;38.62;;
66456;Laerm;56833;52.254;5.598;2023-04-03T00:37:08;37.73;36.79;38.59;;
66456;Laerm;56833;52.254;5.598;2023-04-03T00:37:19;37.73;36.64;38.67;;
66456;Laerm;56833;52.254;5.598;2023-04-03T00:37:29;37.76;36.76;38.56;;
66456;Laerm;56833;52.254;5.598;2023-04-03T00:37:40;37.82;36.90;38.94;;
66456;Laerm;56833;52.254;5.598;2023-04-03T00:37:51;37.79;36.89;38.73;;
66456;Laerm;56833;52.254;5.598;2023-04-03T00:38:02;37.82;36.84;38.80;;
66456;Laerm;56833;52.254;5.598;2023-04-03T00:38:12;37.82;36.63;38.83;;
66456;Laerm;56833;52.254;5.598;2023-04-03T00:38:22;37.82;36.80;38.84;;
66456;Laerm;56833;52.254;5.598;2023-04-03T00:38:33;37.81;36.81;38.83;;
66456;Laerm;56833;52.254;5.598;2023-04-03T00:38:43;37.81;36.85;38.67;;
66456;Laerm;56833;52.254;5.598;2023-04-03T00:38:53;37.83;36.85;38.62;;
66456;Laerm;56833;52.254;5.598;2023-04-03T00:39:04;37.83;36.71;38.95;;
66456;Laerm;56833;52.254;5.598;2023-04-03T00:39:17;37.82;36.53;38.83;;
66456;Laerm;56833;52.254;5.598;2023-04-03T00:39:28;37.81;36.50;38.88;;
66456;Laerm;56833;52.254;5.598;2023-04-03T00:39:38;37.85;36.86;38.78;;
66456;Laerm;56833;52.254;5.598;2023-04-03T00:39:52;37.83;36.83;38.90;;
66456;Laerm;56833;52.254;5.598;2023-04-03T00:40:02;37.80;36.86;38.73;;
66456;Laerm;56833;52.254;5.598;2023-04-03T00:40:14;37.77;36.82;38.81;;
66456;Laerm;56833;52.254;5.598;2023-04-03T00:40:25;37.75;36.67;38.79;;
66456;Laerm;56833;52.254;5.598;2023-04-03T00:40:37;37.81;36.76;42.34;;
66456;Laerm;56833;52.254;5.598;2023-04-03T00:40:51;37.69;36.46;38.70;;
66456;Laerm;56833;52.254;5.598;2023-04-03T00:41:01;37.66;36.70;38.78;;
66456;Laerm;56833;52.254;5.598;2023-04-03T00:41:12;37.65;36.74;38.55;;
66456;Laerm;56833;52.254;5.598;2023-04-03T00:41:22;37.63;36.74;38.53;;
66456;Laerm;56833;52.254;5.598;2023-04-03T00:41:33;37.68;36.51;38.70;;
66456;Laerm;56833;52.254;5.598;2023-04-03T00:41:46;37.63;36.74;38.65;;
66456;Laerm;56833;52.254;5.598;2023-04-03T00:41:56;37.63;36.75;38.81;;
66456;Laerm;56833;52.254;5.598;2023-04-03T00:42:07;37.62;36.62;38.52;;
66456;Laerm;56833;52.254;5.598;2023-04-03T00:42:19;37.60;36.67;38.74;;
66456;Laerm;56833;52.254;5.598;2023-04-03T00:42:30;37.64;36.60;38.66;;
66456;Laerm;56833;52.254;5.598;2023-04-03T00:42:41;37.65;36.61;38.49;;
66456;Laerm;56833;52.254;5.598;2023-04-03T00:42:56;37.59;36.65;38.62;;
66456;Laerm;56833;52.254;5.598;2023-04-03T00:43:11;37.58;36.64;38.60;;
66456;Laerm;56833;52.254;5.598;2023-04-03T00:43:23;37.62;36.51;38.60;;
66456;Laerm;56833;52.254;5.598;2023-04-03T00:43:34;37.63;36.70;38.56;;
66456;Laerm;56833;52.254;5.598;2023-04-03T00:43:44;37.69;36.51;38.62;;
66456;Laerm;56833;52.254;5.598;2023-04-03T00:43:55;37.69;36.74;38.63;;
66456;Laerm;56833;52.254;5.598;2023-04-03T00:45:26;37.92;36.94;38.85;;
66456;Laerm;56833;52.254;5.598;2023-04-03T00:45:43;37.96;36.95;38.96;;
66456;Laerm;56833;52.254;5.598;2023-04-03T00:45:55;37.94;36.71;38.94;;
66456;Laerm;56833;52.254;5.598;2023-04-03T00:46:07;37.98;37.14;38.89;;
66456;Laerm;56833;52.254;5.598;2023-04-03T00:46:17;37.96;36.89;38.93;;
66456;Laerm;56833;52.254;5.598;2023-04-03T00:46:27;37.96;37.01;38.90;;
66456;Laerm;56833;52.254;5.598;2023-04-03T00:46:38;37.96;36.96;38.89;;
66456;Laerm;56833;52.254;5.598;2023-04-03T00:46:48;37.98;37.09;39.01;;
66456;Laerm;56833;52.254;5.598;2023-04-03T00:46:59;37.97;37.16;38.82;;
66456;Laerm;56833;52.254;5.598;2023-04-03T00:47:13;37.96;37.03;38.78;;
66456;Laerm;56833;52.254;5.598;2023-04-03T00:47:26;37.95;36.94;38.93;;
66456;Laerm;56833;52.254;5.598;2023-04-03T00:47:43;37.93;36.95;38.87;;
66456;Laerm;56833;52.254;5.598;2023-04-03T00:47:54;37.89;36.69;38.84;;
66456;Laerm;56833;52.254;5.598;2023-04-03T00:48:05;37.85;36.92;38.89;;
66456;Laerm;56833;52.254;5.598;2023-04-03T00:48:18;37.88;36.90;38.90;;
66456;Laerm;56833;52.254;5.598;2023-04-03T00:48:37;37.82;36.70;38.97;;
66456;Laerm;56833;52.254;5.598;2023-04-03T00:48:55;37.85;36.84;38.75;;
66456;Laerm;56833;52.254;5.598;2023-04-03T00:49:05;37.87;36.76;38.86;;
66456;Laerm;56833;52.254;5.598;2023-04-03T00:49:15;37.87;36.50;39.06;;
66456;Laerm;56833;52.254;5.598;2023-04-03T00:49:27;37.91;36.89;38.96;;
66456;Laerm;56833;52.254;5.598;2023-04-03T00:49:38;37.90;36.61;38.76;;
66456;Laerm;56833;52.254;5.598;2023-04-03T00:49:53;37.92;36.97;38.73;;
66456;Laerm;56833;52.254;5.598;2023-04-03T00:50:03;37.93;36.98;38.99;;
66456;Laerm;56833;52.254;5.598;2023-04-03T00:50:14;37.94;37.00;38.76;;
66456;Laerm;56833;52.254;5.598;2023-04-03T00:50:25;37.99;36.97;42.19;;
66456;Laerm;56833;52.254;5.598;2023-04-03T00:50:37;37.98;36.84;39.58;;
66456;Laerm;56833;52.254;5.598;2023-04-03T00:50:53;37.96;36.78;38.77;;
66456;Laerm;56833;52.254;5.598;2023-04-03T00:51:04;37.97;36.92;38.91;;
66456;Laerm;56833;52.254;5.598;2023-04-03T00:51:19;37.91;36.72;38.92;;
66456;Laerm;56833;52.254;5.598;2023-04-03T00:51:35;37.94;36.89;38.90;;
66456;Laerm;56833;52.254;5.598;2023-04-03T00:51:46;37.93;37.04;38.99;;
66456;Laerm;56833;52.254;5.598;2023-04-03T00:51:56;37.98;37.16;38.97;;
66456;Laerm;56833;52.254;5.598;2023-04-03T00:52:15;37.99;36.73;39.04;;
66456;Laerm;56833;52.254;5.598;2023-04-03T00:52:32;38.02;37.02;39.24;;
66456;Laerm;56833;52.254;5.598;2023-04-03T00:52:42;38.00;37.18;39.03;;
66456;Laerm;56833;52.254;5.598;2023-04-03T00:53:02;38.03;36.90;39.29;;
66456;Laerm;56833;52.254;5.598;2023-04-03T00:53:18;38.12;37.02;39.15;;
66456;Laerm;56833;52.254;5.598;2023-04-03T00:53:39;38.16;37.19;39.20;;
66456;Laerm;56833;52.254;5.598;2023-04-03T00:53:54;38.14;37.14;39.17;;
66456;Laerm;56833;52.254;5.598;2023-04-03T00:54:06;38.16;37.19;39.10;;
66456;Laerm;56833;52.254;5.598;2023-04-03T00:54:18;38.14;36.92;39.25;;
66456;Laerm;56833;52.254;5.598;2023-04-03T00:54:28;38.13;37.27;38.95;;
66456;Laerm;56833;52.254;5.598;2023-04-03T00:54:39;38.14;37.24;38.97;;
66456;Laerm;56833;52.254;5.598;2023-04-03T00:54:54;38.06;37.05;39.10;;
66456;Laerm;56833;52.254;5.598;2023-04-03T00:55:09;38.14;37.15;39.19;;
66456;Laerm;56833;52.254;5.598;2023-04-03T00:55:20;38.08;37.09;39.05;;
66456;Laerm;56833;52.254;5.598;2023-04-03T00:55:32;38.09;36.97;38.89;;
66456;Laerm;56833;52.254;5.598;2023-04-03T00:55:43;38.09;37.02;39.04;;
66456;Laerm;56833;52.254;5.598;2023-04-03T00:55:55;38.13;37.29;39.11;;
66456;Laerm;56833;52.254;5.598;2023-04-03T00:56:06;38.12;36.81;39.07;;
66456;Laerm;56833;52.254;5.598;2023-04-03T00:56:19;38.13;36.97;39.10;;
66456;Laerm;56833;52.254;5.598;2023-04-03T00:56:31;38.17;37.05;39.08;;
66456;Laerm;56833;52.254;5.598;2023-04-03T00:56:45;38.25;37.12;39.28;;
66456;Laerm;56833;52.254;5.598;2023-04-03T00:56:55;38.22;36.99;39.26;;
66456;Laerm;56833;52.254;5.598;2023-04-03T00:57:07;38.22;37.20;39.04;;
66456;Laerm;56833;52.254;5.598;2023-04-03T00:57:18;38.22;36.92;39.27;;
66456;Laerm;56833;52.254;5.598;2023-04-03T00:57:29;38.28;37.39;39.14;;
66456;Laerm;56833;52.254;5.598;2023-04-03T00:57:44;38.34;37.23;40.52;;
66456;Laerm;56833;52.254;5.598;2023-04-03T00:57:55;38.31;37.31;39.28;;
66456;Laerm;56833;52.254;5.598;2023-04-03T00:58:06;38.30;37.43;39.33;;
66456;Laerm;56833;52.254;5.598;2023-04-03T00:58:27;38.27;37.35;39.22;;
66456;Laerm;56833;52.254;5.598;2023-04-03T00:58:44;38.25;37.25;39.48;;
66456;Laerm;56833;52.254;5.598;2023-04-03T00:58:59;38.30;37.27;39.42;;
66456;Laerm;56833;52.254;5.598;2023-04-03T00:59:12;38.35;37.43;39.48;;
66456;Laerm;56833;52.254;5.598;2023-04-03T00:59:30;38.41;37.54;39.26;;
66456;Laerm;56833;52.254;5.598;2023-04-03T00:59:43;38.36;37.42;39.23;;
66456;Laerm;56833;52.254;5.598;2023-04-03T00:59:59;38.41;37.51;39.34;;
66456;Laerm;56833;52.254;5.598;2023-04-03T01:00:13;38.41;37.24;39.50;;
66456;Laerm;56833;52.254;5.598;2023-04-03T01:00:27;38.40;37.45;39.43;;
66456;Laerm;56833;52.254;5.598;2023-04-03T01:00:41;38.41;37.21;39.52;;
66456;Laerm;56833;52.254;5.598;2023-04-03T01:00:54;38.42;37.39;39.39;;
66456;Laerm;56833;52.254;5.598;2023-04-03T01:01:08;38.46;37.37;39.56;;
66456;Laerm;56833;52.254;5.598;2023-04-03T01:01:24;38.45;37.19;39.67;;
66456;Laerm;56833;52.254;5.598;2023-04-03T01:01:35;38.49;37.52;39.46;;
66456;Laerm;56833;52.254;5.598;2023-04-03T01:01:45;38.46;37.52;39.57;;
66456;Laerm;56833;52.254;5.598;2023-04-03T01:01:56;38.44;37.49;39.31;;
66456;Laerm;56833;52.254;5.598;2023-04-03T01:02:07;38.43;37.63;39.50;;
66456;Laerm;56833;52.254;5.598;2023-04-03T01:02:17;38.43;37.52;39.43;;
66456;Laerm;56833;52.254;5.598;2023-04-03T01:02:28;38.42;37.27;39.36;;
66456;Laerm;56833;52.254;5.598;2023-04-03T01:02:39;38.42;37.33;39.25;;
66456;Laerm;56833;52.254;5.598;2023-04-03T01:02:52;38.45;37.46;39.51;;
66456;Laerm;56833;52.254;5.598;2023-04-03T01:03:02;38.45;37.44;39.68;;
66456;Laerm;56833;52.254;5.598;2023-04-03T01:03:13;38.41;37.11;39.48;;
66456;Laerm;56833;52.254;5.598;2023-04-03T01:03:23;38.46;37.54;39.48;;
66456;Laerm;56833;52.254;5.598;2023-04-03T01:03:33;38.46;37.63;39.37;;
66456;Laerm;56833;52.254;5.598;2023-04-03T01:03:44;38.45;37.33;39.49;;
66456;Laerm;56833;52.254;5.598;2023-04-03T01:03:55;38.44;37.45;39.58;;
66456;Laerm;56833;52.254;5.598;2023-04-03T01:04:06;38.43;37.68;39.52;;
66456;Laerm;56833;52.254;5.598;2023-04-03T01:04:35;38.35;37.43;39.40;;
66456;Laerm;56833;52.254;5.598;2023-04-03T01:04:49;38.45;37.16;39.43;;
66456;Laerm;56833;52.254;5.598;2023-04-03T01:04:59;38.55;37.37;39.38;;
66456;Laerm;56833;52.254;5.598;2023-04-03T01:05:10;38.58;37.79;39.68;;
66456;Laerm;56833;52.254;5.598;2023-04-03T01:05:22;38.59;37.43;39.56;;
66456;Laerm;56833;52.254;5.598;2023-04-03T01:05:32;38.55;37.43;39.67;;
66456;Laerm;56833;52.254;5.598;2023-04-03T01:05:43;38.62;37.57;39.54;;
66456;Laerm;56833;52.254;5.598;2023-04-03T01:05:53;38.62;37.60;39.49;;
66456;Laerm;56833;52.254;5.598;2023-04-03T01:06:04;38.68;37.82;39.52;;
66456;Laerm;56833;52.254;5.598;2023-04-03T01:06:15;38.70;37.70;39.68;;
66456;Laerm;56833;52.254;5.598;2023-04-03T01:06:28;38.71;37.61;39.62;;